createdAt,value
2022-11-23T00:01:35.591Z,2.13
2022-11-23T00:04:09.004Z,2.14
2022-11-23T00:06:37.482Z,2.12
2022-11-23T00:09:06.169Z,2.10
2022-11-23T00:11:35.672Z,2.05
2022-11-23T00:14:04.358Z,2.03
2022-11-23T00:16:50.861Z,1.95
2022-11-23T00:19:18.930Z,1.72
2022-11-23T00:21:47.002Z,1.75
2022-11-23T00:24:15.171Z,1.76
2022-11-23T00:26:43.459Z,1.70
2022-11-23T00:29:11.725Z,1.72
2022-11-23T00:31:40.575Z,1.72
2022-11-23T00:34:08.682Z,1.72
2022-11-23T00:36:36.754Z,1.67
2022-11-23T00:39:04.824Z,1.64
2022-11-23T00:41:32.894Z,1.74
2022-11-23T00:44:00.882Z,1.81
2022-11-23T00:46:28.960Z,1.86
2022-11-23T00:48:58.236Z,1.83
2022-11-23T00:51:32.757Z,1.76
2022-11-23T00:54:01.888Z,1.77
2022-11-23T00:56:31.200Z,1.72
2022-11-23T00:59:00.549Z,1.63
2022-11-23T01:01:37.878Z,1.67
2022-11-23T01:04:07.963Z,1.56
2022-11-23T01:06:40.564Z,1.59
2022-11-23T01:09:14.298Z,1.58
2022-11-23T01:11:42.614Z,1.64
2022-11-23T01:14:11.776Z,1.71
2022-11-23T01:16:42.236Z,1.76
2022-11-23T01:19:14.503Z,1.78
2022-11-23T01:21:43.305Z,1.82
2022-11-23T01:24:17.450Z,1.86
2022-11-23T01:26:46.155Z,1.85
2022-11-23T01:29:16.523Z,1.84
2022-11-23T01:31:46.749Z,1.82
2022-11-23T01:34:16.862Z,1.83
2022-11-23T01:36:45.536Z,1.83
2022-11-23T01:39:13.597Z,1.82
2022-11-23T01:41:45.169Z,1.78
2022-11-23T01:44:23.732Z,1.63
2022-11-23T01:46:55.759Z,1.51
2022-11-23T01:49:26.167Z,1.45
2022-11-23T01:51:59.507Z,1.44
2022-11-23T01:54:49.811Z,1.45
2022-11-23T01:57:38.098Z,1.47
2022-11-23T02:00:08.429Z,1.47
2022-11-23T02:02:51.320Z,1.45
2022-11-23T02:05:25.389Z,1.47
2022-11-23T02:07:54.493Z,1.50
2022-11-23T02:10:23.713Z,1.47
2022-11-23T02:12:53.859Z,1.49
2022-11-23T02:15:21.930Z,1.51
2022-11-23T02:17:51.180Z,1.49
2022-11-23T02:20:19.995Z,1.42
2022-11-23T02:23:22.700Z,1.43
2022-11-23T02:26:08.299Z,1.37
2022-11-23T02:28:53.961Z,1.28
2022-11-23T02:31:21.993Z,1.28
2022-11-23T02:33:50.310Z,1.31
2022-11-23T02:36:32.098Z,1.37
2022-11-23T02:39:12.125Z,1.39
2022-11-23T02:41:49.485Z,1.38
2022-11-23T02:44:39.796Z,1.39
2022-11-23T02:47:09.326Z,1.39
2022-11-23T02:49:37.787Z,1.41
2022-11-23T02:52:06.438Z,1.41
2022-11-23T02:54:35.086Z,1.45
2022-11-23T02:57:03.771Z,1.47
2022-11-23T02:59:32.998Z,1.45
2022-11-23T03:02:03.001Z,1.43
2022-11-23T03:04:31.850Z,1.42
2022-11-23T03:07:00.249Z,1.42
2022-11-23T03:09:29.729Z,1.40
2022-11-23T03:11:58.378Z,1.39
2022-11-23T03:14:26.764Z,1.37
2022-11-23T03:17:00.211Z,1.32
2022-11-23T03:19:31.572Z,1.32
2022-11-23T03:21:59.935Z,1.33
2022-11-23T03:24:31.385Z,1.26
2022-11-23T03:27:00.255Z,1.28
2022-11-23T03:29:28.845Z,1.29
2022-11-23T03:31:57.657Z,1.29
2022-11-23T03:34:25.820Z,1.34
2022-11-23T03:36:53.846Z,1.36
2022-11-23T03:39:21.958Z,1.36
2022-11-23T03:41:56.297Z,1.33
2022-11-23T03:44:28.443Z,1.26
2022-11-23T03:46:56.714Z,1.27
2022-11-23T03:49:26.021Z,1.27
2022-11-23T03:51:54.395Z,1.23
2022-11-23T03:54:22.642Z,1.21
2022-11-23T03:56:50.679Z,1.18
2022-11-23T03:59:18.914Z,1.21
2022-11-23T04:01:47.597Z,1.18
2022-11-23T04:04:21.506Z,1.15
2022-11-23T04:07:18.779Z,1.03
2022-11-23T04:09:51.439Z,1.02
2022-11-23T04:12:27.290Z,1.02
2022-11-23T04:14:55.360Z,1.00
2022-11-23T04:17:23.633Z,0.99
2022-11-23T04:19:51.705Z,0.96
2022-11-23T04:22:19.908Z,0.98
2022-11-23T04:24:48.461Z,0.91
2022-11-23T04:27:17.264Z,0.81
2022-11-23T04:29:45.318Z,0.75
2022-11-23T04:32:13.387Z,0.75
2022-11-23T04:34:41.462Z,0.81
2022-11-23T04:37:13.231Z,0.78
2022-11-23T04:39:42.722Z,0.75
2022-11-23T04:42:31.070Z,0.64
2022-11-23T04:45:00.469Z,0.55
2022-11-23T04:47:28.744Z,0.52
2022-11-23T04:49:59.168Z,0.45
2022-11-23T04:52:27.238Z,0.37
2022-11-23T04:54:55.318Z,0.26
2022-11-23T04:57:23.894Z,0.28
2022-11-23T04:59:52.782Z,0.35
2022-11-23T05:02:20.851Z,0.39
2022-11-23T05:05:10.000Z,0.38
2022-11-23T05:07:38.144Z,0.39
2022-11-23T05:10:07.289Z,0.33
2022-11-23T05:12:37.141Z,0.34
2022-11-23T05:15:06.374Z,0.38
2022-11-23T05:17:38.450Z,0.33
2022-11-23T05:20:11.631Z,0.27
2022-11-23T05:22:43.408Z,0.29
2022-11-23T05:25:13.219Z,0.31
2022-11-23T05:27:41.341Z,0.32
2022-11-23T05:30:10.595Z,0.31
2022-11-23T05:32:38.657Z,0.34
2022-11-23T05:35:08.012Z,0.35
2022-11-23T05:37:36.744Z,0.37
2022-11-23T05:40:06.673Z,0.36
2022-11-23T05:42:35.000Z,0.38
2022-11-23T05:45:11.653Z,0.42
2022-11-23T05:47:42.773Z,0.46
2022-11-23T05:50:19.808Z,0.50
2022-11-23T05:52:47.903Z,0.54
2022-11-23T05:55:16.527Z,0.56
2022-11-23T05:57:44.656Z,0.58
2022-11-23T06:00:13.364Z,0.52
2022-11-23T06:02:46.429Z,0.54
2022-11-23T06:05:15.320Z,0.52
2022-11-23T06:07:53.079Z,0.50
2022-11-23T06:10:25.802Z,0.37
2022-11-23T06:12:54.279Z,0.38
2022-11-23T06:15:23.473Z,0.38
2022-11-23T06:17:52.766Z,0.40
2022-11-23T06:20:22.397Z,0.42
2022-11-23T06:22:57.315Z,0.42
2022-11-23T06:25:26.819Z,0.41
2022-11-23T06:28:14.853Z,0.42
2022-11-23T06:30:45.689Z,0.45
2022-11-23T06:33:14.076Z,0.51
2022-11-23T06:35:57.543Z,0.55
2022-11-23T06:38:28.843Z,0.57
2022-11-23T06:41:03.681Z,0.58
2022-11-23T06:43:32.206Z,0.57
2022-11-23T06:46:05.430Z,0.62
2022-11-23T06:48:34.438Z,0.64
2022-11-23T06:51:02.918Z,0.62
2022-11-23T06:53:32.189Z,0.63
2022-11-23T06:56:04.542Z,0.66
2022-11-23T06:58:32.991Z,0.63
2022-11-23T07:01:04.906Z,0.61
2022-11-23T07:03:38.153Z,0.56
2022-11-23T07:06:14.484Z,0.48
2022-11-23T07:08:45.728Z,0.46
2022-11-23T07:11:24.864Z,0.50
2022-11-23T07:13:53.031Z,0.56
2022-11-23T07:16:21.114Z,0.62
2022-11-23T07:18:50.706Z,0.64
2022-11-23T07:21:18.879Z,0.64
2022-11-23T07:23:47.466Z,0.68
2022-11-23T07:26:16.252Z,0.74
2022-11-23T07:28:44.450Z,0.67
2022-11-23T07:31:16.211Z,0.67
2022-11-23T07:33:48.331Z,0.66
2022-11-23T07:36:17.335Z,0.65
2022-11-23T07:38:46.234Z,0.58
2022-11-23T07:41:15.432Z,0.57
2022-11-23T07:44:03.983Z,0.58
2022-11-23T07:46:32.046Z,0.61
2022-11-23T07:49:02.515Z,0.63
2022-11-23T07:51:30.744Z,0.66
2022-11-23T07:53:58.824Z,0.65
2022-11-23T07:56:26.888Z,0.63
2022-11-23T07:58:54.959Z,0.61
2022-11-23T08:01:23.180Z,0.56
2022-11-23T08:03:51.307Z,0.56
2022-11-23T08:06:19.315Z,0.54
2022-11-23T08:08:47.398Z,0.54
2022-11-23T08:11:17.323Z,0.59
2022-11-23T08:13:45.638Z,0.65
2022-11-23T08:16:13.812Z,0.71
2022-11-23T08:18:41.979Z,0.76
2022-11-23T08:21:10.051Z,0.76
2022-11-23T08:23:38.092Z,0.70
2022-11-23T08:26:10.469Z,0.75
2022-11-23T08:28:41.703Z,0.75
2022-11-23T08:31:11.530Z,0.78
2022-11-23T08:33:39.710Z,0.84
2022-11-23T08:36:08.659Z,0.86
2022-11-23T08:38:36.992Z,0.85
2022-11-23T08:41:05.885Z,0.86
2022-11-23T08:43:35.126Z,0.84
2022-11-23T08:46:09.333Z,0.81
2022-11-23T08:48:39.234Z,0.78
2022-11-23T08:51:07.627Z,0.77
2022-11-23T08:53:36.265Z,0.73
2022-11-23T08:56:06.407Z,0.71
2022-11-23T08:58:34.568Z,0.64
2022-11-23T09:01:02.627Z,0.56
2022-11-23T09:03:31.315Z,0.52
2022-11-23T09:06:01.066Z,0.45
2022-11-23T09:08:29.625Z,0.38
2022-11-23T09:11:06.686Z,0.39
2022-11-23T09:13:38.446Z,0.41
2022-11-23T09:16:09.486Z,0.46
2022-11-23T09:18:37.552Z,0.48
2022-11-23T09:21:06.537Z,0.52
2022-11-23T09:23:34.869Z,0.50
2022-11-23T09:26:04.742Z,0.53
2022-11-23T09:28:33.720Z,0.51
2022-11-23T09:31:04.719Z,0.49
2022-11-23T09:33:33.041Z,0.52
2022-11-23T09:36:03.188Z,0.52
2022-11-23T09:38:55.143Z,0.51
2022-11-23T09:41:57.055Z,0.50
2022-11-23T09:44:41.303Z,0.42
2022-11-23T09:47:35.587Z,0.47
2022-11-23T09:50:31.619Z,0.46
2022-11-23T09:53:13.654Z,0.46
2022-11-23T09:55:44.797Z,0.48
2022-11-23T09:58:18.594Z,0.53
2022-11-23T10:00:53.040Z,0.59
2022-11-23T10:03:21.253Z,0.59
2022-11-23T10:06:24.347Z,0.63
2022-11-23T10:09:18.996Z,0.64
2022-11-23T10:12:37.226Z,0.69
2022-11-23T10:15:39.871Z,0.68
2022-11-23T10:18:30.468Z,0.62
2022-11-23T10:21:07.012Z,0.66
2022-11-23T10:23:38.003Z,0.70
2022-11-23T10:26:13.307Z,0.74
2022-11-23T10:28:41.496Z,0.76
2022-11-23T10:31:26.123Z,0.76
2022-11-23T10:33:56.163Z,0.71
2022-11-23T10:36:24.301Z,0.70
2022-11-23T10:38:58.818Z,0.72
2022-11-23T10:41:26.869Z,0.72
2022-11-23T10:44:07.187Z,0.74
2022-11-23T10:46:35.480Z,0.77
2022-11-23T10:49:18.646Z,0.82
2022-11-23T10:51:55.653Z,0.81
2022-11-23T10:54:27.954Z,0.78
2022-11-23T10:56:57.715Z,0.81
2022-11-23T10:59:32.621Z,0.81
2022-11-23T11:02:01.162Z,0.82
2022-11-23T11:04:29.625Z,0.88
2022-11-23T11:07:16.075Z,0.85
2022-11-23T11:09:50.104Z,0.76
2022-11-23T11:12:18.738Z,0.76
2022-11-23T11:15:19.332Z,0.75
2022-11-23T11:17:57.260Z,0.71
2022-11-23T11:20:28.026Z,0.70
2022-11-23T11:23:02.086Z,0.71
2022-11-23T11:25:38.316Z,0.69
2022-11-23T11:28:21.700Z,0.74
2022-11-23T11:31:16.913Z,0.75
2022-11-23T11:33:58.499Z,0.67
2022-11-23T11:36:32.066Z,0.66
2022-11-23T11:39:18.299Z,0.64
2022-11-23T11:41:51.334Z,0.67
2022-11-23T11:44:23.760Z,0.72
2022-11-23T11:46:59.705Z,0.78
2022-11-23T11:49:35.996Z,0.79
2022-11-23T11:52:34.264Z,0.80
2022-11-23T11:55:02.191Z,0.79
2022-11-23T11:57:40.159Z,0.87
2022-11-23T12:00:15.556Z,0.92
2022-11-23T12:02:50.283Z,0.97
2022-11-23T12:05:25.424Z,0.98
2022-11-23T12:07:54.253Z,1.01
2022-11-23T12:10:30.008Z,0.97
2022-11-23T12:12:58.337Z,0.98
2022-11-23T12:15:53.625Z,1.00
2022-11-23T12:19:01.282Z,0.99
2022-11-23T12:21:41.334Z,1.00
2022-11-23T12:24:18.402Z,1.03
2022-11-23T12:26:49.109Z,1.05
2022-11-23T12:29:17.020Z,1.07
2022-11-23T12:31:50.951Z,1.05
2022-11-23T12:34:36.044Z,1.04
2022-11-23T12:37:25.937Z,1.04
2022-11-23T12:39:59.928Z,0.97
2022-11-23T12:42:52.769Z,0.94
2022-11-23T12:45:26.766Z,0.88
2022-11-23T12:48:36.124Z,0.81
2022-11-23T12:51:28.436Z,0.79
2022-11-23T12:54:09.678Z,0.78
2022-11-23T12:57:17.664Z,0.79
2022-11-23T13:00:03.327Z,0.75
2022-11-23T13:02:43.642Z,0.80
2022-11-23T13:05:49.592Z,0.86
2022-11-23T13:08:42.820Z,0.89
2022-11-23T13:11:22.131Z,0.92
2022-11-23T13:13:59.390Z,0.99
2022-11-23T13:16:37.575Z,1.02
2022-11-23T13:19:14.776Z,1.03
2022-11-23T13:21:45.609Z,1.04
2022-11-23T13:24:28.918Z,0.99
2022-11-23T13:27:15.219Z,0.94
2022-11-23T13:29:49.255Z,0.93
2022-11-23T13:32:52.007Z,1.00
2022-11-23T13:35:19.924Z,0.97
2022-11-23T13:37:56.751Z,1.01
2022-11-23T13:40:35.923Z,1.03
2022-11-23T13:43:26.869Z,1.06
2022-11-23T13:46:19.768Z,1.08
2022-11-23T13:48:59.045Z,1.11
2022-11-23T13:51:32.286Z,1.12
2022-11-23T13:54:19.705Z,1.12
2022-11-23T13:56:59.139Z,1.13
2022-11-23T13:59:31.598Z,1.16
2022-11-23T14:02:12.721Z,1.21
2022-11-23T14:04:46.988Z,1.21
2022-11-23T14:07:32.317Z,1.26
2022-11-23T14:10:15.662Z,1.25
2022-11-23T14:12:49.173Z,1.21
2022-11-23T14:15:20.928Z,1.22
2022-11-23T14:18:31.982Z,1.20
2022-11-23T14:21:15.198Z,1.07
2022-11-23T14:24:05.688Z,1.06
2022-11-23T14:26:52.440Z,1.04
2022-11-23T14:29:31.553Z,1.07
2022-11-23T14:32:02.655Z,1.02
2022-11-23T14:34:41.417Z,0.99
2022-11-23T14:37:43.587Z,0.92
2022-11-23T14:40:29.593Z,0.88
2022-11-23T14:42:58.388Z,0.86
2022-11-23T14:45:32.979Z,0.92
2022-11-23T14:48:27.238Z,0.79
2022-11-23T14:51:05.450Z,0.77
2022-11-23T14:53:42.748Z,0.76
2022-11-23T14:56:31.264Z,0.78
2022-11-23T14:59:08.620Z,0.83
2022-11-23T15:01:37.829Z,0.87
2022-11-23T15:04:25.698Z,0.88
2022-11-23T15:06:59.425Z,0.88
2022-11-23T15:09:51.778Z,0.91
2022-11-23T15:12:47.179Z,0.88
2022-11-23T15:15:27.272Z,0.83
2022-11-23T15:18:00.904Z,0.82
2022-11-23T15:20:49.204Z,0.79
2022-11-23T15:23:23.025Z,0.74
2022-11-23T15:25:53.003Z,0.75
2022-11-23T15:28:27.246Z,0.78
2022-11-23T15:30:58.583Z,0.81
2022-11-23T15:33:28.188Z,0.82
2022-11-23T15:35:56.286Z,0.86
2022-11-23T15:38:24.393Z,0.82
2022-11-23T15:40:52.723Z,0.81
2022-11-23T15:43:21.015Z,0.75
2022-11-23T15:45:49.104Z,0.79
2022-11-23T15:48:22.829Z,0.81
2022-11-23T15:50:56.264Z,0.84
2022-11-23T15:53:30.321Z,0.91
2022-11-23T15:56:04.843Z,0.91
2022-11-23T15:58:35.379Z,0.92
2022-11-23T16:01:12.632Z,0.97
2022-11-23T16:03:52.637Z,1.00
2022-11-23T16:06:41.386Z,1.01
2022-11-23T16:09:57.164Z,1.00
2022-11-23T16:12:30.923Z,0.92
2022-11-23T16:15:30.813Z,0.92
2022-11-23T16:18:00.833Z,0.89
2022-11-23T16:20:30.006Z,0.89
2022-11-23T16:23:00.885Z,0.83
2022-11-23T16:25:31.915Z,0.84
2022-11-23T16:28:01.721Z,0.84
2022-11-23T16:30:41.011Z,0.84
2022-11-23T16:33:17.517Z,0.86
2022-11-23T16:35:46.448Z,0.90
2022-11-23T16:38:14.578Z,0.87
2022-11-23T16:40:44.192Z,0.88
2022-11-23T16:43:13.389Z,0.89
2022-11-23T16:45:45.040Z,0.87
2022-11-23T16:48:25.449Z,0.89
2022-11-23T16:50:55.181Z,0.85
2022-11-23T16:53:23.695Z,0.80
2022-11-23T16:55:56.839Z,0.78
2022-11-23T16:58:30.272Z,0.69
2022-11-23T17:00:58.414Z,0.74
2022-11-23T17:03:26.362Z,0.76
2022-11-23T17:05:54.807Z,0.79
2022-11-23T17:08:24.041Z,0.84
2022-11-23T17:10:52.416Z,0.83
2022-11-23T17:13:27.843Z,0.86
2022-11-23T17:15:56.496Z,0.87
2022-11-23T17:18:24.745Z,0.91
2022-11-23T17:20:52.804Z,0.93
2022-11-23T17:23:20.768Z,0.97
2022-11-23T17:25:49.097Z,1.01
2022-11-23T17:28:22.673Z,0.99
2022-11-23T17:30:50.814Z,1.00
2022-11-23T17:33:18.824Z,1.01
2022-11-23T17:35:47.207Z,1.03
2022-11-23T17:38:20.084Z,1.07
2022-11-23T17:40:48.257Z,1.07
2022-11-23T17:43:16.633Z,1.07
2022-11-23T17:45:45.064Z,1.11
2022-11-23T17:48:15.035Z,1.11
2022-11-23T17:50:43.187Z,1.12
2022-11-23T17:53:11.498Z,1.12
2022-11-23T17:55:39.863Z,1.10
2022-11-23T17:58:08.128Z,1.10
2022-11-23T18:00:37.841Z,1.08
2022-11-23T18:03:05.927Z,1.08
2022-11-23T18:05:34.329Z,1.06
2022-11-23T18:08:02.376Z,1.09
2022-11-23T18:10:30.406Z,1.13
2022-11-23T18:12:58.523Z,1.14
2022-11-23T18:15:26.570Z,1.13
2022-11-23T18:17:54.641Z,1.12
2022-11-23T18:20:22.965Z,1.12
2022-11-23T18:22:51.448Z,1.11
2022-11-23T18:25:19.568Z,1.14
2022-11-23T18:27:47.596Z,1.17
2022-11-23T18:30:17.710Z,1.18
2022-11-23T18:32:46.157Z,1.19
2022-11-23T18:35:14.510Z,1.23
2022-11-23T18:37:42.684Z,1.26
2022-11-23T18:40:11.268Z,1.30
2022-11-23T18:42:39.385Z,1.28
2022-11-23T18:45:08.944Z,1.25
2022-11-23T18:47:37.833Z,1.23
2022-11-23T18:50:06.828Z,1.21
2022-11-23T18:52:34.999Z,1.18
2022-11-23T18:55:03.070Z,1.16
2022-11-23T18:57:31.148Z,1.21
2022-11-23T18:59:59.392Z,1.26
2022-11-23T19:02:28.102Z,1.30
2022-11-23T19:04:56.484Z,1.31
2022-11-23T19:07:27.086Z,1.28
2022-11-23T19:09:56.611Z,1.24
2022-11-23T19:12:24.653Z,1.24
2022-11-23T19:14:52.889Z,1.20
2022-11-23T19:17:21.334Z,1.22
2022-11-23T19:19:49.330Z,1.20
2022-11-23T19:22:17.416Z,1.18
2022-11-23T19:24:45.388Z,1.14
2022-11-23T19:27:13.930Z,1.06
2022-11-23T19:29:41.996Z,1.02
2022-11-23T19:32:10.068Z,1.03
2022-11-23T19:34:38.034Z,1.04
2022-11-23T19:37:06.109Z,1.04
2022-11-23T19:39:34.474Z,1.04
2022-11-23T19:42:02.755Z,1.05
2022-11-23T19:44:30.933Z,1.05
2022-11-23T19:46:59.208Z,1.04
2022-11-23T19:49:27.231Z,1.00
2022-11-23T19:51:56.576Z,0.98
2022-11-23T19:54:24.746Z,1.00
2022-11-23T19:56:53.021Z,0.99
2022-11-23T19:59:21.091Z,0.97
2022-11-23T20:01:49.113Z,1.02
2022-11-23T20:04:17.236Z,1.04
2022-11-23T20:06:45.517Z,1.05
2022-11-23T20:09:17.114Z,1.05
2022-11-23T20:11:50.427Z,1.03
2022-11-23T20:14:19.769Z,0.93
2022-11-23T20:16:48.234Z,0.92
2022-11-23T20:19:16.411Z,0.93
2022-11-23T20:21:44.454Z,0.92
2022-11-23T20:24:13.905Z,0.94
2022-11-23T20:26:42.474Z,0.91
2022-11-23T20:29:11.390Z,0.91
2022-11-23T20:31:39.705Z,0.84
2022-11-23T20:34:10.116Z,0.80
2022-11-23T20:36:40.589Z,0.73
2022-11-23T20:39:10.954Z,0.67
2022-11-23T20:41:39.293Z,0.59
2022-11-23T20:44:11.636Z,0.57
2022-11-23T20:49:30.132Z,0.61
2022-11-23T20:51:59.654Z,0.61
2022-11-23T20:54:28.357Z,0.61
2022-11-23T20:57:00.217Z,0.62
2022-11-23T20:59:29.209Z,0.67
2022-11-23T21:01:57.542Z,0.68
2022-11-23T21:04:26.376Z,0.74
2022-11-23T21:06:54.908Z,0.79
2022-11-23T21:09:22.987Z,0.85
2022-11-23T21:12:09.802Z,0.85
2022-11-23T21:14:37.981Z,0.79
2022-11-23T21:17:06.531Z,0.76
2022-11-23T21:19:36.949Z,0.74
2022-11-23T21:22:08.209Z,0.71
2022-11-23T21:24:37.177Z,0.69
2022-11-23T21:27:07.428Z,0.70
2022-11-23T21:29:35.597Z,0.72
2022-11-23T21:32:03.881Z,0.72
2022-11-23T21:34:32.476Z,0.70
2022-11-23T21:37:01.356Z,0.67
2022-11-23T21:39:33.178Z,0.64
2022-11-23T21:42:01.512Z,0.62
2022-11-23T21:44:29.571Z,0.64
2022-11-23T21:46:57.649Z,0.68
2022-11-23T21:49:28.967Z,0.65
2022-11-23T21:51:57.145Z,0.59
2022-11-23T21:54:25.312Z,0.55
2022-11-23T21:56:53.354Z,0.48
2022-11-23T21:59:22.254Z,0.40
2022-11-23T22:05:57.648Z,0.07
2022-11-23T22:08:29.638Z,0.08
2022-11-23T22:10:58.420Z,0.16
2022-11-23T22:13:26.679Z,0.22
2022-11-23T22:15:54.928Z,0.24
2022-11-23T22:18:23.600Z,0.26
2022-11-23T22:20:52.426Z,0.19
2022-11-23T22:23:20.646Z,0.15
2022-11-23T22:25:48.873Z,0.08
2022-11-23T22:28:17.158Z,0.01
2022-11-23T22:30:53.417Z,-0.06
2022-11-23T22:33:22.172Z,-0.05
2022-11-23T22:35:51.708Z,-0.04
2022-11-23T22:38:20.308Z,-0.03
2022-11-23T22:40:49.484Z,0.00
2022-11-23T22:43:17.762Z,-0.01
2022-11-23T22:45:46.005Z,-0.10
2022-11-23T22:48:14.272Z,-0.09
2022-11-23T22:50:44.323Z,-0.09
2022-11-23T22:53:12.521Z,-0.18
2022-11-23T22:55:40.780Z,-0.12
2022-11-23T22:58:08.955Z,-0.12
2022-11-23T23:00:37.122Z,-0.13
2022-11-23T23:03:05.505Z,-0.02
2022-11-23T23:05:34.247Z,0.04
2022-11-23T23:08:02.478Z,0.02
2022-11-23T23:10:30.700Z,0.03
2022-11-23T23:12:58.910Z,0.03
2022-11-23T23:15:27.793Z,0.03
2022-11-23T23:17:55.973Z,0.05
2022-11-23T23:20:24.243Z,0.05
2022-11-23T23:22:52.502Z,0.08
2022-11-23T23:25:20.690Z,0.00
2022-11-23T23:27:48.857Z,0.04
2022-11-23T23:30:18.415Z,0.06
2022-11-23T23:32:46.883Z,0.07
2022-11-23T23:35:15.122Z,0.05
2022-11-23T23:37:43.349Z,0.06
2022-11-23T23:40:12.336Z,0.05
2022-11-23T23:42:40.476Z,0.01
2022-11-23T23:45:09.193Z,0.04
2022-11-23T23:47:38.240Z,0.07
2022-11-23T23:50:07.045Z,0.07
2022-11-23T23:52:37.559Z,0.07
2022-11-23T23:55:07.079Z,0.08
2022-11-23T23:57:35.564Z,0.11
